createdAt,value
2022-11-13T00:01:31.203Z,229.87
2022-11-13T00:06:57.772Z,197.37
2022-11-13T00:12:19.898Z,141.13
2022-11-13T00:17:40.744Z,154.37
2022-11-13T00:23:01.564Z,142.33
2022-11-13T00:28:22.554Z,127.43
2022-11-13T00:34:09.198Z,133.07
2022-11-13T00:39:24.264Z,139.67
2022-11-13T00:44:45.274Z,113.53
2022-11-13T00:50:06.445Z,111.37
2022-11-13T00:55:27.203Z,118.00
2022-11-13T01:00:49.078Z,104.53
2022-11-13T01:06:24.580Z,98.87
2022-11-13T01:11:45.300Z,88.07
2022-11-13T01:17:06.118Z,82.70
2022-11-13T01:22:27.152Z,84.87
2022-11-13T01:27:47.945Z,83.90
2022-11-13T01:33:08.811Z,77.43
2022-11-13T01:38:34.285Z,82.33
2022-11-13T01:43:57.657Z,67.70
2022-11-13T01:49:26.918Z,81.27
2022-11-13T01:54:56.950Z,76.40
2022-11-13T02:00:18.126Z,71.40
2022-11-13T02:05:39.110Z,61.83
2022-11-13T02:11:00.091Z,75.90
2022-11-13T02:16:22.533Z,67.30
2022-11-13T02:22:15.445Z,65.83
2022-11-13T02:27:50.410Z,58.60
2022-11-13T02:33:40.464Z,60.57
2022-11-13T02:39:06.779Z,55.60
2022-11-13T02:44:27.963Z,51.37
2022-11-13T02:49:48.718Z,79.83
2022-11-13T02:55:09.836Z,61.77
2022-11-13T03:00:30.598Z,50.17
2022-11-13T03:05:51.625Z,60.63
2022-11-13T03:11:13.101Z,54.57
2022-11-13T03:16:35.143Z,53.30
2022-11-13T03:21:56.091Z,51.93
2022-11-13T03:27:17.039Z,43.17
2022-11-13T03:32:37.860Z,49.07
2022-11-13T03:37:58.662Z,43.77
2022-11-13T03:43:19.592Z,44.93
2022-11-13T03:48:40.667Z,37.53
2022-11-13T03:54:01.477Z,42.03
2022-11-13T03:59:22.441Z,42.93
2022-11-13T04:04:44.638Z,38.03
2022-11-13T04:10:05.790Z,38.50
2022-11-13T04:15:26.888Z,61.47
2022-11-13T04:20:47.946Z,65.10
2022-11-13T04:26:08.805Z,54.07
2022-11-13T04:31:29.907Z,45.30
2022-11-13T04:36:50.709Z,45.40
2022-11-13T04:42:30.764Z,37.97
2022-11-13T04:47:51.664Z,48.83
2022-11-13T04:53:12.488Z,61.50
2022-11-13T04:58:33.541Z,62.73
2022-11-13T05:03:54.044Z,64.80
2022-11-13T05:09:15.335Z,62.33
2022-11-13T05:14:37.540Z,62.67
2022-11-13T05:19:58.564Z,68.73
2022-11-13T05:25:19.574Z,59.63
2022-11-13T05:30:40.555Z,52.07
2022-11-13T05:36:16.159Z,59.17
2022-11-13T05:41:37.079Z,60.87
2022-11-13T05:46:57.840Z,46.07
2022-11-13T05:52:18.796Z,46.93
2022-11-13T05:57:39.917Z,44.37
2022-11-13T06:03:00.992Z,43.60
2022-11-13T06:08:22.060Z,42.43
2022-11-13T06:13:42.974Z,39.87
2022-11-13T06:19:06.782Z,42.13
2022-11-13T06:24:27.660Z,39.03
2022-11-13T06:29:48.640Z,45.80
2022-11-13T06:35:09.610Z,36.70
2022-11-13T06:40:30.506Z,34.73
2022-11-13T06:45:51.532Z,37.77
2022-11-13T06:51:15.429Z,38.07
2022-11-13T06:56:36.115Z,38.03
2022-11-13T07:01:57.052Z,36.77
2022-11-13T07:07:17.909Z,33.33
2022-11-13T07:12:38.943Z,36.30
2022-11-13T07:18:01.489Z,36.50
2022-11-13T07:23:22.881Z,37.03
2022-11-13T07:28:44.111Z,33.10
2022-11-13T07:34:04.779Z,34.93
2022-11-13T07:39:26.717Z,38.47
2022-11-13T07:44:54.418Z,29.70
2022-11-13T07:50:16.407Z,30.27
2022-11-13T07:55:37.506Z,34.77
2022-11-13T08:01:05.803Z,32.97
2022-11-13T08:06:28.059Z,35.30
2022-11-13T08:11:49.173Z,34.07
2022-11-13T08:17:10.076Z,31.60
2022-11-13T08:22:31.299Z,44.73
2022-11-13T08:27:53.997Z,38.40
2022-11-13T08:33:14.496Z,32.37
2022-11-13T08:38:35.519Z,27.57
2022-11-13T08:43:56.311Z,20.57
2022-11-13T08:49:17.148Z,18.17
2022-11-13T08:54:37.993Z,21.13
2022-11-13T08:59:59.270Z,22.23
2022-11-13T09:05:19.905Z,12.57
2022-11-13T09:10:40.777Z,15.93
2022-11-13T09:16:03.235Z,19.13
2022-11-13T09:21:24.178Z,17.60
2022-11-13T09:26:44.939Z,19.97
2022-11-13T09:32:06.039Z,19.50
2022-11-13T09:37:27.001Z,21.33
2022-11-13T09:42:47.817Z,23.43
2022-11-13T09:48:30.199Z,19.03
2022-11-13T09:53:51.635Z,27.90
2022-11-13T09:59:30.397Z,23.10
2022-11-13T10:05:23.614Z,26.27
2022-11-13T10:11:02.056Z,28.53
2022-11-13T10:17:04.160Z,31.43
2022-11-13T10:22:34.555Z,40.13
2022-11-13T10:28:04.556Z,52.40
2022-11-13T10:33:36.801Z,61.23
2022-11-13T10:39:07.301Z,34.20
2022-11-13T10:44:43.723Z,35.87
2022-11-13T10:50:22.650Z,44.37
2022-11-13T10:55:44.208Z,36.50
2022-11-13T11:01:16.408Z,34.93
2022-11-13T11:12:30.613Z,43.67
2022-11-13T11:18:03.491Z,41.50
2022-11-13T11:23:50.615Z,51.50
2022-11-13T11:29:21.771Z,74.97
2022-11-13T11:34:48.967Z,77.47
2022-11-13T11:40:16.250Z,65.07
2022-11-13T11:45:40.775Z,134.30
2022-11-13T11:51:17.381Z,91.47
2022-11-13T11:56:50.638Z,106.20
2022-11-13T12:02:20.171Z,78.37
2022-11-13T12:08:00.101Z,73.33
2022-11-13T12:13:28.927Z,114.63
2022-11-13T12:19:04.870Z,147.87
2022-11-13T12:24:50.233Z,88.27
2022-11-13T12:30:42.212Z,86.00
2022-11-13T12:36:06.739Z,82.43
2022-11-13T12:41:45.560Z,71.73
2022-11-13T12:47:08.604Z,66.77
2022-11-13T12:52:29.974Z,85.00
2022-11-13T12:57:50.918Z,81.93
2022-11-13T13:03:39.255Z,86.23
2022-11-13T13:09:07.063Z,85.23
2022-11-13T13:14:54.984Z,81.63
2022-11-13T13:20:16.168Z,74.83
2022-11-13T13:25:38.144Z,77.60
2022-11-13T13:31:30.859Z,75.20
2022-11-13T13:37:01.083Z,88.47
2022-11-13T13:42:49.350Z,82.20
2022-11-13T13:48:12.501Z,80.70
2022-11-13T13:53:36.156Z,81.10
2022-11-13T13:58:56.886Z,74.43
2022-11-13T14:04:21.405Z,74.43
2022-11-13T14:09:42.586Z,90.10
2022-11-13T14:15:27.790Z,87.90
2022-11-13T14:20:55.328Z,93.50
2022-11-13T14:26:17.572Z,100.97
2022-11-13T14:31:39.075Z,82.90
2022-11-13T14:37:32.410Z,94.57
2022-11-13T14:42:59.673Z,75.77
2022-11-13T14:48:23.850Z,81.77
2022-11-13T14:53:44.812Z,94.97
2022-11-13T14:59:15.547Z,124.83
2022-11-13T15:04:40.621Z,90.43
2022-11-13T15:10:02.141Z,90.43
2022-11-13T15:15:30.939Z,83.87
2022-11-13T15:20:51.934Z,91.77
2022-11-13T15:26:12.825Z,89.00
2022-11-13T15:31:36.382Z,88.90
2022-11-13T15:36:57.410Z,99.87
2022-11-13T15:42:24.453Z,102.40
2022-11-13T15:47:45.300Z,97.00
2022-11-13T15:53:09.011Z,86.67
2022-11-13T15:58:33.516Z,87.90
2022-11-13T16:03:58.237Z,97.50
2022-11-13T16:09:19.222Z,121.93
2022-11-13T16:14:40.643Z,114.70
2022-11-13T16:20:01.774Z,109.10
2022-11-13T16:25:23.181Z,103.80
2022-11-13T16:30:45.146Z,136.70
2022-11-13T16:36:14.785Z,126.70
2022-11-13T16:41:37.513Z,100.07
2022-11-13T16:46:58.579Z,111.03
2022-11-13T16:52:19.754Z,107.73
2022-11-13T16:57:40.997Z,103.40
2022-11-13T17:03:02.027Z,115.60
2022-11-13T17:08:23.352Z,105.27
2022-11-13T17:13:48.818Z,121.53
2022-11-13T17:19:13.687Z,130.50
2022-11-13T17:24:34.644Z,112.60
2022-11-13T17:29:55.863Z,118.87
2022-11-13T17:35:16.924Z,112.93
2022-11-13T17:40:37.930Z,99.93
2022-11-13T17:45:59.472Z,105.30
2022-11-13T17:51:20.392Z,97.97
2022-11-13T17:56:42.876Z,97.97
2022-11-13T18:02:04.131Z,103.23
2022-11-13T18:07:25.445Z,103.67
2022-11-13T18:12:49.553Z,123.70
2022-11-13T18:18:10.461Z,95.17
2022-11-13T18:23:31.656Z,96.70
2022-11-13T18:28:53.177Z,118.40
2022-11-13T18:34:16.681Z,114.47
2022-11-13T18:39:37.638Z,111.07
2022-11-13T18:45:01.719Z,111.27
2022-11-13T18:50:28.197Z,110.17
2022-11-13T18:55:49.086Z,135.13
2022-11-13T19:01:33.711Z,228.43
2022-11-13T19:06:54.817Z,96.13
2022-11-13T19:12:16.001Z,131.37
2022-11-13T19:17:37.022Z,92.57
2022-11-13T19:22:58.042Z,114.53
2022-11-13T19:28:18.696Z,104.50
2022-11-13T19:33:40.415Z,105.90
2022-11-13T19:39:01.176Z,100.97
2022-11-13T19:44:21.998Z,122.87
2022-11-13T19:49:42.963Z,102.20
2022-11-13T19:55:04.146Z,103.87
2022-11-13T20:00:25.092Z,123.87
2022-11-13T20:05:46.243Z,140.37
2022-11-13T20:11:10.698Z,120.87
2022-11-13T20:16:31.893Z,104.27
2022-11-13T20:21:53.605Z,93.40
2022-11-13T20:27:14.502Z,123.77
2022-11-13T20:32:39.646Z,111.10
2022-11-13T20:38:00.216Z,139.53
2022-11-13T20:43:21.076Z,146.73
2022-11-13T20:48:42.010Z,118.27
2022-11-13T20:54:03.854Z,111.60
2022-11-13T20:59:24.780Z,112.20
2022-11-13T21:04:45.486Z,111.70
2022-11-13T21:10:07.064Z,105.23
2022-11-13T21:15:28.121Z,115.73
2022-11-13T21:20:49.437Z,102.67
2022-11-13T21:26:10.181Z,98.13
2022-11-13T21:31:31.012Z,106.03
2022-11-13T21:36:51.838Z,116.13
2022-11-13T21:42:12.761Z,106.80
2022-11-13T21:47:33.807Z,120.70
2022-11-13T21:52:54.525Z,105.30
2022-11-13T21:58:15.411Z,103.83
2022-11-13T22:03:36.797Z,114.43
2022-11-13T22:09:06.430Z,105.07
2022-11-13T22:14:27.217Z,116.17
2022-11-13T22:19:47.939Z,115.30
2022-11-13T22:25:09.135Z,113.70
2022-11-13T22:30:29.841Z,108.80
2022-11-13T22:35:50.619Z,105.77
2022-11-13T22:41:23.249Z,122.83
2022-11-13T22:46:44.467Z,130.27
2022-11-13T22:52:05.486Z,120.40
2022-11-13T22:57:26.457Z,121.37
2022-11-13T23:02:47.708Z,130.73
2022-11-13T23:08:08.944Z,116.93
2022-11-13T23:13:29.907Z,129.00
2022-11-13T23:18:52.106Z,125.43
2022-11-13T23:24:12.951Z,128.37
2022-11-13T23:29:33.608Z,122.67
2022-11-13T23:35:01.880Z,115.57
2022-11-13T23:40:22.900Z,125.80
2022-11-13T23:45:43.351Z,136.30
2022-11-13T23:51:04.750Z,146.37
2022-11-13T23:56:25.510Z,122.37
